Ransom, Illinois
Current Conditions -  °F | °C
As of 5:55 PM on Wednesday 22 Oct 2014 (Local Time) from KPNT Reporting Station
Clear Clear  
Wind Chill: 53°   Ceiling: Unl
Heat Index: 53°   Visibility: 10mi
Dew Point: 34°   Wind: 6mph
Humidity: 49%   Direction: 110°ESE
Pressure: 30.25"   Gusts: NA
Location:  41.16°N, 88.65°W
Report Text: KPNT 222255Z AUTO 11005KT 10SM CLR 12/01 A3025 RMK AO2 T01150012
Loading
Personal Weather Stations






























Interactive Weather Map New forecast layout! Learn more

10-Day Weather Forecast

Advertisements
Track Severe Weather on mobile